createdAt,value
2018-07-23T00:02:09.163Z,5.17
2018-07-23T00:04:38.300Z,7.20
2018-07-23T00:07:07.047Z,6.23
2018-07-23T00:09:36.353Z,7.00
2018-07-23T00:12:05.436Z,6.13
2018-07-23T00:14:34.416Z,6.70
2018-07-23T00:17:03.863Z,6.33
2018-07-23T00:19:32.935Z,6.23
2018-07-23T00:22:02.333Z,6.30
2018-07-23T00:24:31.340Z,6.90
2018-07-23T00:26:58.962Z,6.17
2018-07-23T00:29:27.928Z,7.80
2018-07-23T00:31:56.692Z,6.80
2018-07-23T00:34:25.547Z,7.87
2018-07-23T00:36:54.859Z,8.03
2018-07-23T00:39:24.001Z,7.40
2018-07-23T00:41:53.305Z,7.70
2018-07-23T00:44:22.495Z,7.40
2018-07-23T00:46:51.843Z,6.90
2018-07-23T00:49:20.684Z,6.97
2018-07-23T00:51:49.429Z,7.67
2018-07-23T00:54:19.313Z,7.80
2018-07-23T00:56:48.317Z,6.63
2018-07-23T00:59:17.017Z,6.30
2018-07-23T01:01:45.751Z,6.40
2018-07-23T01:04:14.490Z,6.57
2018-07-23T01:06:43.240Z,7.17
2018-07-23T01:09:12.230Z,8.13
2018-07-23T01:11:41.636Z,7.80
2018-07-23T01:14:11.175Z,6.80
2018-07-23T01:16:40.184Z,7.47
2018-07-23T01:19:08.948Z,7.23
2018-07-23T01:21:37.664Z,6.20
2018-07-23T01:24:06.863Z,6.13
2018-07-23T01:26:36.157Z,5.70
2018-07-23T01:29:05.199Z,6.20
2018-07-23T01:31:33.923Z,8.03
2018-07-23T01:34:02.867Z,7.13
2018-07-23T01:36:32.195Z,6.30
2018-07-23T01:39:01.142Z,6.17
2018-07-23T01:41:29.885Z,6.67
2018-07-23T01:43:58.915Z,6.57
2018-07-23T01:46:27.685Z,6.77
2018-07-23T01:48:57.293Z,7.80
2018-07-23T01:51:26.032Z,8.00
2018-07-23T01:53:54.799Z,7.80
2018-07-23T01:56:24.106Z,7.37
2018-07-23T01:58:52.828Z,7.87
2018-07-23T02:01:21.559Z,7.37
2018-07-23T02:03:50.555Z,7.33
2018-07-23T02:06:19.706Z,7.60
2018-07-23T02:08:49.251Z,7.20
2018-07-23T02:11:17.980Z,7.43
2018-07-23T02:13:47.426Z,7.13
2018-07-23T02:16:16.366Z,7.87
2018-07-23T02:18:45.087Z,6.90
2018-07-23T02:21:14.424Z,7.20
2018-07-23T02:23:43.190Z,7.37
2018-07-23T02:26:12.282Z,7.03
2018-07-23T02:28:41.626Z,7.97
2018-07-23T02:31:10.725Z,7.80
2018-07-23T02:33:39.491Z,7.40
2018-07-23T02:36:08.627Z,8.03
2018-07-23T02:38:37.728Z,7.93
2018-07-23T02:41:06.587Z,8.30
2018-07-23T02:43:35.285Z,7.70
2018-07-23T02:46:04.368Z,8.17
2018-07-23T02:48:33.393Z,8.60
2018-07-23T02:51:02.219Z,9.53
2018-07-23T02:53:30.919Z,8.80
2018-07-23T02:55:59.652Z,9.57
2018-07-23T02:58:28.694Z,9.97
2018-07-23T03:00:58.437Z,9.50
2018-07-23T03:03:27.401Z,9.47
2018-07-23T03:05:56.277Z,8.93
2018-07-23T03:08:25.650Z,9.70
2018-07-23T03:10:54.773Z,10.17
2018-07-23T03:13:24.134Z,9.37
2018-07-23T03:15:53.438Z,11.33
2018-07-23T03:18:22.653Z,8.30
2018-07-23T03:20:51.444Z,9.80
2018-07-23T03:23:20.177Z,9.73
2018-07-23T03:25:49.570Z,8.80
2018-07-23T03:28:18.882Z,7.93
2018-07-23T03:30:48.284Z,8.87
2018-07-23T03:33:17.345Z,9.03
2018-07-23T03:35:46.077Z,10.17
2018-07-23T03:38:14.788Z,9.10
2018-07-23T03:40:43.827Z,8.90
2018-07-23T03:43:12.926Z,9.67
2018-07-23T03:45:41.710Z,10.83
2018-07-23T03:48:10.770Z,12.53
2018-07-23T03:50:39.796Z,11.23
2018-07-23T03:53:08.831Z,11.00
2018-07-23T03:55:38.145Z,11.23
2018-07-23T03:58:07.507Z,10.80
2018-07-23T04:00:36.243Z,10.40
2018-07-23T04:03:05.787Z,11.50
2018-07-23T04:05:34.541Z,11.90
2018-07-23T04:08:04.069Z,12.70
2018-07-23T04:10:33.536Z,13.17
2018-07-23T04:13:02.551Z,14.47
2018-07-23T04:15:31.338Z,14.40
2018-07-23T04:18:03.888Z,14.73
2018-07-23T04:20:35.319Z,12.57
2018-07-23T04:23:05.191Z,12.30
2018-07-23T04:25:34.472Z,11.00
2018-07-23T04:28:03.426Z,11.37
2018-07-23T04:30:32.148Z,10.70
2018-07-23T04:33:00.875Z,9.80
2018-07-23T04:35:30.217Z,11.67
2018-07-23T04:37:58.931Z,11.13
2018-07-23T04:40:27.731Z,11.90
2018-07-23T04:42:56.486Z,12.80
2018-07-23T04:45:26.170Z,12.20
2018-07-23T04:47:55.265Z,12.07
2018-07-23T04:50:24.240Z,10.77
2018-07-23T04:52:53.010Z,11.17
2018-07-23T04:55:22.319Z,13.20
2018-07-23T04:57:51.465Z,12.37
2018-07-23T05:00:20.222Z,11.40
2018-07-23T05:02:49.044Z,11.87
2018-07-23T05:05:18.217Z,12.23
2018-07-23T05:07:47.624Z,13.40
2018-07-23T05:10:17.664Z,12.50
2018-07-23T05:12:46.737Z,13.20
2018-07-23T05:15:15.524Z,14.23
2018-07-23T05:17:45.245Z,14.03
2018-07-23T05:20:14.017Z,13.30
2018-07-23T05:22:43.663Z,14.93
2018-07-23T05:25:12.728Z,14.83
2018-07-23T05:27:41.718Z,14.80
2018-07-23T05:30:10.551Z,15.60
2018-07-23T05:32:39.322Z,14.97
2018-07-23T05:35:08.137Z,15.10
2018-07-23T05:37:37.731Z,15.37
2018-07-23T05:40:06.942Z,15.30
2018-07-23T05:42:35.978Z,16.20
2018-07-23T05:45:05.560Z,16.40
2018-07-23T05:47:34.616Z,16.27
2018-07-23T05:50:03.673Z,17.37
2018-07-23T05:52:32.479Z,18.80
2018-07-23T05:55:01.797Z,18.50
2018-07-23T05:57:30.676Z,16.97
2018-07-23T05:59:59.803Z,17.93
2018-07-23T06:02:28.972Z,17.03
2018-07-23T06:04:57.734Z,17.37
2018-07-23T06:07:26.483Z,16.93
2018-07-23T06:09:55.671Z,16.80
2018-07-23T06:12:24.441Z,16.97
2018-07-23T06:14:53.456Z,16.60
2018-07-23T06:17:22.265Z,15.90
2018-07-23T06:19:51.024Z,17.77
2018-07-23T06:22:19.807Z,17.10
2018-07-23T06:24:48.557Z,15.83
2018-07-23T06:27:17.990Z,16.30
2018-07-23T06:29:46.802Z,15.70
2018-07-23T06:32:15.581Z,14.67
2018-07-23T06:34:44.801Z,14.73
2018-07-23T06:37:14.035Z,14.20
2018-07-23T06:39:42.877Z,13.57
2018-07-23T06:42:12.808Z,16.17
2018-07-23T06:44:41.571Z,13.97
2018-07-23T06:47:10.309Z,14.60
2018-07-23T06:49:39.305Z,13.90
2018-07-23T06:52:08.375Z,13.43
2018-07-23T06:54:37.361Z,12.90
2018-07-23T06:57:07.010Z,12.80
2018-07-23T06:59:36.862Z,12.93
2018-07-23T07:02:05.891Z,12.50
2018-07-23T07:04:34.602Z,13.90
2018-07-23T07:07:03.641Z,11.87
2018-07-23T07:09:32.371Z,11.80
2018-07-23T07:12:01.119Z,13.13
2018-07-23T07:14:29.890Z,13.07
2018-07-23T07:16:58.963Z,11.43
2018-07-23T07:19:27.716Z,12.33
2018-07-23T07:21:56.513Z,13.60
2018-07-23T07:24:25.853Z,12.80
2018-07-23T07:26:54.667Z,12.20
2018-07-23T07:29:23.823Z,12.87
2018-07-23T07:31:52.602Z,11.97
2018-07-23T07:34:21.372Z,12.00
2018-07-23T07:36:50.874Z,12.10
2018-07-23T07:39:19.605Z,11.37
2018-07-23T07:41:49.212Z,9.00
2018-07-23T07:44:18.338Z,11.40
2018-07-23T07:46:47.392Z,11.10
2018-07-23T07:49:16.804Z,9.30
2018-07-23T07:51:45.898Z,11.40
2018-07-23T07:54:14.930Z,9.30
2018-07-23T07:56:44.173Z,10.07
2018-07-23T07:59:13.281Z,8.20
2018-07-23T08:01:42.001Z,8.53
2018-07-23T08:04:10.711Z,8.77
2018-07-23T08:06:39.528Z,8.83
2018-07-23T08:09:09.116Z,8.73
2018-07-23T08:11:38.380Z,8.80
2018-07-23T08:14:07.137Z,6.77
2018-07-23T08:16:36.500Z,8.20
2018-07-23T08:19:05.576Z,8.40
2018-07-23T08:21:34.347Z,9.80
2018-07-23T08:24:03.432Z,9.73
2018-07-23T08:26:32.470Z,8.40
2018-07-23T08:29:01.185Z,9.53
2018-07-23T08:31:30.381Z,9.00
2018-07-23T08:33:59.582Z,9.80
2018-07-23T08:36:28.609Z,8.50
2018-07-23T08:38:57.676Z,8.10
2018-07-23T08:41:26.838Z,8.07
2018-07-23T08:43:55.881Z,9.13
2018-07-23T08:46:24.595Z,8.13
2018-07-23T08:48:53.896Z,9.80
2018-07-23T08:51:22.708Z,9.53
2018-07-23T08:53:52.028Z,9.17
2018-07-23T08:56:20.775Z,9.90
2018-07-23T08:58:49.839Z,9.37
2018-07-23T09:01:19.207Z,8.70
2018-07-23T09:03:48.051Z,9.30
2018-07-23T09:06:17.314Z,7.80
2018-07-23T09:08:46.971Z,9.10
2018-07-23T09:11:15.759Z,7.77
2018-07-23T09:13:45.429Z,8.47
2018-07-23T09:16:14.887Z,10.93
2018-07-23T09:18:44.153Z,7.67
2018-07-23T09:21:13.213Z,7.00
2018-07-23T09:23:42.310Z,7.50
2018-07-23T09:26:11.410Z,7.30
2018-07-23T09:28:40.515Z,6.43
2018-07-23T09:31:09.382Z,6.07
2018-07-23T09:33:38.313Z,6.10
2018-07-23T09:36:07.635Z,6.20
2018-07-23T09:38:37.117Z,6.10
2018-07-23T09:41:06.357Z,6.60
2018-07-23T09:43:35.138Z,5.50
2018-07-23T09:46:03.905Z,4.13
2018-07-23T09:48:32.873Z,4.50
2018-07-23T09:51:01.623Z,4.10
2018-07-23T09:53:30.327Z,4.20
2018-07-23T09:55:59.450Z,4.50
2018-07-23T09:58:29.315Z,4.47
2018-07-23T10:01:02.835Z,4.37
2018-07-23T10:03:31.957Z,3.90
2018-07-23T10:06:00.710Z,3.87
2018-07-23T10:08:29.990Z,4.87
2018-07-23T10:10:59.047Z,3.83
2018-07-23T10:13:28.193Z,4.80
2018-07-23T10:15:57.873Z,5.20
2018-07-23T10:18:26.581Z,4.70
2018-07-23T10:20:55.647Z,4.17
2018-07-23T10:23:24.918Z,3.33
2018-07-23T10:25:53.982Z,3.80
2018-07-23T10:28:23.459Z,3.40
2018-07-23T10:30:52.830Z,2.60
2018-07-23T10:33:21.889Z,3.33
2018-07-23T10:35:50.887Z,3.80
2018-07-23T10:38:19.615Z,3.33
2018-07-23T10:40:52.255Z,4.23
2018-07-23T10:43:21.369Z,5.00
2018-07-23T10:45:51.757Z,4.90
2018-07-23T10:48:20.490Z,5.00
2018-07-23T10:50:49.596Z,4.53
2018-07-23T10:53:18.961Z,4.60
2018-07-23T10:55:48.300Z,3.87
2018-07-23T10:58:17.023Z,3.00
2018-07-23T11:00:45.739Z,4.27
2018-07-23T11:03:15.350Z,4.90
2018-07-23T11:05:44.356Z,4.47
2018-07-23T11:08:13.084Z,4.40
2018-07-23T11:10:41.819Z,3.73
2018-07-23T11:13:10.511Z,4.17
2018-07-23T11:15:40.088Z,4.10
2018-07-23T11:18:08.815Z,4.00
2018-07-23T11:20:37.828Z,4.30
2018-07-23T11:23:07.104Z,4.30
2018-07-23T11:25:40.135Z,3.20
2018-07-23T11:28:05.822Z,3.30
2018-07-23T11:30:34.808Z,4.13
2018-07-23T11:33:04.709Z,4.13
2018-07-23T11:35:33.443Z,3.37
2018-07-23T11:38:02.808Z,3.53
2018-07-23T11:40:32.170Z,3.53
2018-07-23T11:43:01.450Z,2.97
2018-07-23T11:45:30.164Z,3.37
2018-07-23T11:47:59.189Z,2.73
2018-07-23T11:50:27.919Z,4.03
2018-07-23T11:52:57.031Z,4.23
2018-07-23T11:55:25.779Z,3.47
2018-07-23T11:57:54.662Z,3.77
2018-07-23T12:00:24.036Z,4.13
2018-07-23T12:02:54.245Z,3.00
2018-07-23T12:05:23.571Z,3.20
2018-07-23T12:07:52.384Z,3.23
2018-07-23T12:10:21.376Z,3.00
2018-07-23T12:12:50.650Z,3.30
2018-07-23T12:15:19.652Z,3.80
2018-07-23T12:17:48.732Z,3.83
2018-07-23T12:20:17.818Z,3.37
2018-07-23T12:22:46.822Z,4.07
2018-07-23T12:25:15.598Z,3.97
2018-07-23T12:27:44.634Z,4.00
2018-07-23T12:30:13.711Z,4.00
2018-07-23T12:32:42.815Z,3.30
2018-07-23T12:35:11.819Z,3.93
2018-07-23T12:37:40.869Z,3.97
2018-07-23T12:40:10.833Z,5.00
2018-07-23T12:42:40.010Z,3.80
2018-07-23T12:45:08.985Z,3.63
2018-07-23T12:47:38.403Z,4.60
2018-07-23T12:50:07.411Z,3.70
2018-07-23T12:52:36.176Z,4.17
2018-07-23T12:55:05.349Z,4.20
2018-07-23T12:57:34.474Z,3.60
2018-07-23T13:00:03.569Z,3.90
2018-07-23T13:02:32.292Z,3.20
2018-07-23T13:05:01.496Z,3.80
2018-07-23T13:07:30.241Z,3.70
2018-07-23T13:09:59.047Z,3.70
2018-07-23T13:12:28.552Z,3.33
2018-07-23T13:14:57.596Z,4.33
2018-07-23T13:17:26.449Z,3.20
2018-07-23T13:19:55.358Z,4.20
2018-07-23T13:22:24.438Z,3.47
2018-07-23T13:24:53.581Z,3.30
2018-07-23T13:27:22.329Z,3.60
2018-07-23T13:29:51.595Z,4.37
2018-07-23T13:32:20.380Z,3.30
2018-07-23T13:34:49.457Z,3.40
2018-07-23T13:37:18.608Z,4.50
2018-07-23T13:39:47.323Z,4.27
2018-07-23T13:42:16.665Z,2.93
2018-07-23T13:44:45.887Z,2.60
2018-07-23T13:47:14.990Z,2.80
2018-07-23T13:49:44.106Z,4.60
2018-07-23T13:52:13.142Z,3.03
2018-07-23T13:54:41.905Z,3.10
2018-07-23T13:57:11.085Z,3.30
2018-07-23T13:59:40.573Z,3.97
2018-07-23T14:02:09.938Z,4.37
2018-07-23T14:04:39.074Z,2.90
2018-07-23T14:07:07.857Z,2.60
2018-07-23T14:09:36.942Z,2.60
2018-07-23T14:12:06.176Z,2.60
2018-07-23T14:14:35.375Z,2.70
2018-07-23T14:17:04.447Z,2.53
2018-07-23T14:19:33.420Z,2.20
2018-07-23T14:22:02.748Z,2.50
2018-07-23T14:24:31.769Z,2.30
2018-07-23T14:27:01.144Z,2.80
2018-07-23T14:29:30.165Z,2.97
2018-07-23T14:31:58.923Z,2.03
2018-07-23T14:34:27.882Z,2.50
2018-07-23T14:36:56.977Z,2.77
2018-07-23T14:39:26.111Z,2.37
2018-07-23T14:41:54.846Z,2.60
2018-07-23T14:44:23.579Z,2.73
2018-07-23T14:46:53.021Z,1.83
2018-07-23T14:49:22.121Z,2.30
2018-07-23T14:51:50.861Z,2.30
2018-07-23T14:54:20.189Z,2.57
2018-07-23T14:56:49.436Z,2.17
2018-07-23T14:59:18.480Z,2.20
2018-07-23T15:01:47.488Z,2.20
2018-07-23T15:04:16.784Z,2.37
2018-07-23T15:06:45.543Z,1.97
2018-07-23T15:09:14.258Z,2.03
2018-07-23T15:11:43.112Z,2.50
2018-07-23T15:14:11.881Z,2.60
2018-07-23T15:16:41.319Z,2.33
2018-07-23T15:19:10.439Z,1.80
2018-07-23T15:21:39.773Z,3.13
2018-07-23T15:24:09.374Z,2.53
2018-07-23T15:26:38.161Z,3.47
2018-07-23T15:29:07.290Z,2.70
2018-07-23T15:31:36.662Z,2.67
2018-07-23T15:34:05.485Z,2.40
2018-07-23T15:36:34.791Z,2.40
2018-07-23T15:39:03.827Z,2.37
2018-07-23T15:41:32.576Z,1.90
2018-07-23T15:44:01.980Z,1.80
2018-07-23T15:46:31.002Z,2.60
2018-07-23T15:48:59.714Z,2.90
2018-07-23T15:51:28.456Z,2.13
2018-07-23T15:53:57.619Z,2.43
2018-07-23T15:56:26.703Z,1.73
2018-07-23T15:58:56.037Z,2.20
2018-07-23T16:01:25.071Z,2.27
2018-07-23T16:03:54.434Z,2.53
2018-07-23T16:06:23.712Z,1.93
2018-07-23T16:08:53.117Z,2.40
2018-07-23T16:11:22.259Z,2.43
2018-07-23T16:13:51.375Z,2.03
2018-07-23T16:16:20.427Z,2.37
2018-07-23T16:18:49.601Z,2.57
2018-07-23T16:21:18.393Z,2.20
2018-07-23T16:23:47.466Z,2.10
2018-07-23T16:26:16.866Z,2.07
2018-07-23T16:28:46.193Z,1.70
2018-07-23T16:31:15.590Z,1.60
2018-07-23T16:33:44.942Z,2.37
2018-07-23T16:36:13.836Z,2.10
2018-07-23T16:38:42.536Z,2.80
2018-07-23T16:41:11.406Z,2.37
2018-07-23T16:43:40.215Z,2.07
2018-07-23T16:46:09.358Z,2.17
2018-07-23T16:48:39.049Z,1.87
2018-07-23T16:51:07.806Z,2.17
2018-07-23T16:53:37.458Z,2.27
2018-07-23T16:56:06.205Z,2.67
2018-07-23T16:58:35.193Z,2.53
2018-07-23T17:01:03.944Z,1.87
2018-07-23T17:03:32.782Z,2.30
2018-07-23T17:06:01.587Z,2.13
2018-07-23T17:08:30.961Z,2.63
2018-07-23T17:11:00.704Z,2.07
2018-07-23T17:13:29.680Z,1.80
2018-07-23T17:15:58.722Z,2.53
2018-07-23T17:18:28.089Z,3.50
2018-07-23T17:20:56.784Z,3.17
2018-07-23T17:23:25.848Z,4.90
2018-07-23T17:25:55.145Z,3.20
2018-07-23T17:28:24.125Z,2.13
2018-07-23T17:30:52.858Z,3.03
2018-07-23T17:33:22.241Z,2.93
2018-07-23T17:35:51.292Z,2.10
2018-07-23T17:38:20.384Z,2.80
2018-07-23T17:40:49.831Z,2.33
2018-07-23T17:43:19.204Z,2.30
2018-07-23T17:45:48.037Z,2.03
2018-07-23T17:48:16.789Z,3.37
2018-07-23T17:50:45.581Z,2.87
2018-07-23T17:53:15.090Z,2.50
2018-07-23T17:55:44.436Z,2.97
2018-07-23T17:58:13.689Z,2.40
2018-07-23T18:00:42.733Z,2.60
2018-07-23T18:03:11.689Z,2.50
2018-07-23T18:05:40.504Z,2.50
2018-07-23T18:08:09.243Z,2.57
2018-07-23T18:10:38.385Z,2.80
2018-07-23T18:13:08.240Z,3.10
2018-07-23T18:15:37.328Z,2.20
2018-07-23T18:18:06.036Z,2.87
2018-07-23T18:20:34.833Z,3.47
2018-07-23T18:23:03.764Z,3.60
2018-07-23T18:25:33.293Z,3.80
2018-07-23T18:28:02.357Z,4.30
2018-07-23T18:30:31.115Z,3.60
2018-07-23T18:33:00.494Z,3.20
2018-07-23T18:35:29.231Z,3.53
2018-07-23T18:37:58.176Z,3.50
2018-07-23T18:40:27.215Z,3.47
2018-07-23T18:42:56.174Z,3.67
2018-07-23T18:45:25.942Z,3.30
2018-07-23T18:47:54.988Z,3.23
2018-07-23T18:50:24.000Z,4.27
2018-07-23T18:52:53.307Z,4.07
2018-07-23T18:55:22.313Z,3.77
2018-07-23T18:57:51.728Z,3.33
2018-07-23T19:00:20.874Z,3.70
2018-07-23T19:02:50.249Z,4.30
2018-07-23T19:05:19.027Z,4.03
2018-07-23T19:07:48.319Z,3.93
2018-07-23T19:10:17.378Z,4.07
2018-07-23T19:12:46.140Z,4.03
2018-07-23T19:15:14.997Z,4.20
2018-07-23T19:17:44.109Z,3.70
2018-07-23T19:20:12.905Z,5.20
2018-07-23T19:22:43.130Z,4.23
2018-07-23T19:25:11.887Z,4.00
2018-07-23T19:27:41.177Z,4.20
2018-07-23T19:30:10.215Z,4.50
2018-07-23T19:32:39.251Z,5.20
2018-07-23T19:35:08.374Z,4.30
2018-07-23T19:37:37.422Z,4.53
2018-07-23T19:40:06.524Z,4.63
2018-07-23T19:42:35.664Z,4.27
2018-07-23T19:45:04.424Z,5.43
2018-07-23T19:47:33.847Z,4.40
2018-07-23T19:50:03.297Z,3.90
2018-07-23T19:52:32.009Z,4.10
2018-07-23T19:55:00.962Z,5.37
2018-07-23T19:57:29.750Z,4.60
2018-07-23T19:59:59.102Z,4.80
2018-07-23T20:02:28.520Z,4.60
2018-07-23T20:04:57.729Z,4.53
2018-07-23T20:07:26.839Z,4.70
2018-07-23T20:09:56.122Z,5.50
2018-07-23T20:12:25.180Z,5.20
2018-07-23T20:14:54.370Z,4.90
2018-07-23T20:17:23.099Z,5.83
2018-07-23T20:19:51.815Z,5.90
2018-07-23T20:22:20.915Z,4.90
2018-07-23T20:24:49.944Z,5.80
2018-07-23T20:27:19.626Z,5.50
2018-07-23T20:29:48.367Z,5.70
2018-07-23T20:32:17.595Z,6.30
2018-07-23T20:34:47.043Z,5.03
2018-07-23T20:37:15.891Z,5.50
2018-07-23T20:39:44.801Z,6.07
2018-07-23T20:42:14.203Z,5.00
2018-07-23T20:44:43.275Z,5.30
2018-07-23T20:47:12.295Z,5.50
2018-07-23T20:49:41.728Z,4.70
2018-07-23T20:52:10.459Z,5.80
2018-07-23T20:54:39.786Z,5.23
2018-07-23T20:57:08.517Z,6.13
2018-07-23T20:59:37.382Z,6.93
2018-07-23T21:02:06.262Z,6.07
2018-07-23T21:04:35.578Z,5.87
2018-07-23T21:07:04.670Z,6.30
2018-07-23T21:09:33.633Z,6.07
2018-07-23T21:12:02.407Z,7.03
2018-07-23T21:14:31.493Z,6.63
2018-07-23T21:17:00.562Z,7.17
2018-07-23T21:19:29.440Z,7.67
2018-07-23T21:21:58.409Z,7.13
2018-07-23T21:24:27.448Z,7.93
2018-07-23T21:26:56.217Z,6.97
2018-07-23T21:29:25.645Z,7.27
2018-07-23T21:31:55.004Z,7.70
2018-07-23T21:34:23.841Z,7.97
2018-07-23T21:36:52.604Z,8.83
2018-07-23T21:39:21.796Z,8.30
2018-07-23T21:41:50.884Z,7.70
2018-07-23T21:44:20.092Z,8.13
2018-07-23T21:46:49.157Z,8.97
2018-07-23T21:49:18.257Z,8.30
2018-07-23T21:51:47.027Z,7.00
2018-07-23T21:54:16.235Z,8.47
2018-07-23T21:56:45.094Z,8.00
2018-07-23T21:59:14.453Z,8.03
2018-07-23T22:01:43.273Z,7.70
2018-07-23T22:04:12.426Z,8.10
2018-07-23T22:06:41.666Z,8.10
2018-07-23T22:09:10.709Z,8.03
2018-07-23T22:11:39.793Z,7.80
2018-07-23T22:14:09.490Z,8.10
2018-07-23T22:16:38.957Z,8.40
2018-07-23T22:19:07.965Z,8.57
2018-07-23T22:21:37.161Z,8.27
2018-07-23T22:24:06.019Z,8.87
2018-07-23T22:26:34.822Z,11.50
2018-07-23T22:29:04.056Z,9.03
2018-07-23T22:31:32.913Z,9.73
2018-07-23T22:34:02.055Z,8.83
2018-07-23T22:36:30.916Z,8.97
2018-07-23T22:38:59.704Z,8.33
2018-07-23T22:41:28.771Z,8.93
2018-07-23T22:43:57.784Z,8.37
2018-07-23T22:46:26.881Z,9.27
2018-07-23T22:48:55.896Z,9.50
2018-07-23T22:51:24.656Z,11.13
2018-07-23T22:53:53.759Z,10.87
2018-07-23T22:56:22.650Z,9.87
2018-07-23T22:58:51.491Z,9.60
2018-07-23T23:01:20.691Z,10.33
2018-07-23T23:03:49.513Z,11.63
2018-07-23T23:06:18.364Z,10.97
2018-07-23T23:08:47.572Z,10.40
2018-07-23T23:11:16.313Z,12.47
2018-07-23T23:13:45.116Z,12.37
2018-07-23T23:16:13.933Z,12.33
2018-07-23T23:18:42.733Z,13.23
2018-07-23T23:21:11.952Z,12.50
2018-07-23T23:23:41.037Z,13.27
2018-07-23T23:26:09.816Z,12.97
2018-07-23T23:28:38.975Z,12.20
2018-07-23T23:31:07.806Z,14.00
2018-07-23T23:33:37.205Z,14.40
2018-07-23T23:36:06.319Z,13.20
2018-07-23T23:38:35.076Z,13.77
2018-07-23T23:41:04.012Z,13.83
2018-07-23T23:43:33.239Z,15.07
2018-07-23T23:46:02.127Z,12.80
2018-07-23T23:48:31.049Z,13.90
2018-07-23T23:51:00.204Z,12.60
2018-07-23T23:53:29.495Z,15.33
2018-07-23T23:55:58.528Z,14.20
2018-07-23T23:58:27.571Z,13.90
